MAPA DE AEROPUERTO

INFORMACIÓN METAR y TAF

METAR FOR LEMG
ADDS - METARS form results

(1018 UTC 29 January 2022)
Data provider http://aviationweather.gov/metar/data/
 
METAR text: LEMG 291000Z 32001KT CAVOK 15/06 Q1031 NOSIG
Conditions at: LEMG (MALAGA (CIV/MIL), ES) observed 1000 UTC 29 January 2022
Temperature: 15.0°C (59°F)
Dewpoint: 6.0°C (43°F) [RH = 55%]
Pressure (altimeter): 30.44 inches Hg (1031.0 mb)
Winds: from the NW (320 degrees) at 1 MPH (1 knots; 0.5 m/s)
Visibility: 6 or more miles (10+ km)
Ceiling: ceiling and visibility are OK
Clouds: unknown
Weather: no significant weather observed at this time

METAR text: LEMG 290930Z 30004KT CAVOK 12/06 Q1031 NOSIG
Conditions at: LEMG (MALAGA (CIV/MIL), ES) observed 0930 UTC 29 January 2022
Temperature: 12.0°C (54°F)
Dewpoint: 6.0°C (43°F) [RH = 67%]
Pressure (altimeter): 30.44 inches Hg (1031.0 mb)
Winds: from the WNW (300 degrees) at 5 MPH (4 knots; 2.1 m/s)
Visibility: 6 or more miles (10+ km)
Ceiling: ceiling and visibility are OK
Clouds: unknown
Weather: no significant weather observed at this time

Forecast for: LEMG (MALAGA (CIV/MIL), ES)
Text: TAF LEMG 290500Z 2906/3006 26006KT CAVOK TX18/2913Z TN12/2906Z
Forecast period: 0600 to 0900 UTC 29 January 2022
Forecast type: FROM: standard forecast or significant change
Winds: from the W (260 degrees) at 7 MPH (6 knots; 3.1 m/s)
Visibility: 6 or more miles (10+ km)
Ceiling: unknown
Clouds: missing
Weather: no significant weather forecast for this period
Text: PROB40
Forecast period: 0600 to 0800 UTC 29 January 2022
Forecast type: TEMPORARY: The following changes expected for less than half the time period
Winds: from the ESE (110 degrees) at 9 MPH (8 knots; 4.1 m/s)
Visibility: missing
Ceiling: unknown
Clouds: missing
Weather: no significant weather forecast for this period
Text: TEMPO 2906/2908 11008KT
Forecast period: 0900 UTC 29 January 2022 to 0600 UTC 30 January 2022
Forecast type: BECOMING: Conditions expected to become as follows by 1100 UTC 29 January 2022
Winds: from the ESE (110 degrees) at 23 MPH (20 knots; 10.3 m/s)
Visibility: 6 or more miles (10+ km)
Ceiling: unknown
Clouds: missing
Weather: no significant weather forecast for this period
Text: BECMG 2909/2911 11020KT
Forecast period: 1000 to 1800 UTC 29 January 2022
Forecast type: TEMPORARY: The following changes expected for less than half the time period
Winds: from the ESE (110 degrees) at 23 MPH (20 knots; 10.3 m/s)
gusting to 34 MPH (30 knots; 15.4 m/s)
Visibility: missing
Ceiling: unknown
Clouds: missing
Weather: no significant weather forecast for this period